sensor_id;sensor_type;location;lat;lon;timestamp;temperature;humidity
32895;DHT22;19251;49.484;8.260;2023-04-03T00:04:11;8.30;16.30
32895;DHT22;19251;49.484;8.260;2023-04-03T00:09:13;8.10;16.30
32895;DHT22;19251;49.484;8.260;2023-04-03T00:14:15;7.90;16.40
32895;DHT22;19251;49.484;8.260;2023-04-03T00:19:18;7.80;16.50
32895;DHT22;19251;49.484;8.260;2023-04-03T00:24:20;7.60;16.50
32895;DHT22;19251;49.484;8.260;2023-04-03T00:29:22;7.40;16.50
32895;DHT22;19251;49.484;8.260;2023-04-03T00:34:24;7.30;16.60
32895;DHT22;19251;49.484;8.260;2023-04-03T00:39:26;7.10;16.70
32895;DHT22;19251;49.484;8.260;2023-04-03T00:49:37;6.80;16.90
32895;DHT22;19251;49.484;8.260;2023-04-03T00:59:43;6.50;17.10
32895;DHT22;19251;49.484;8.260;2023-04-03T01:04:47;6.40;17.20
32895;DHT22;19251;49.484;8.260;2023-04-03T01:14:53;6.10;17.40
32895;DHT22;19251;49.484;8.260;2023-04-03T01:20:01;6.00;17.30
32895;DHT22;19251;49.484;8.260;2023-04-03T01:25:08;5.90;17.60
32895;DHT22;19251;49.484;8.260;2023-04-03T01:30:10;5.80;17.70
32895;DHT22;19251;49.484;8.260;2023-04-03T01:35:12;5.70;17.90
32895;DHT22;19251;49.484;8.260;2023-04-03T01:40:15;5.60;18.10
32895;DHT22;19251;49.484;8.260;2023-04-03T01:45:19;5.50;18.30
32895;DHT22;19251;49.484;8.260;2023-04-03T01:50:21;5.50;18.40
32895;DHT22;19251;49.484;8.260;2023-04-03T02:00:26;5.40;18.80
32895;DHT22;19251;49.484;8.260;2023-04-03T02:05:28;5.30;18.80
32895;DHT22;19251;49.484;8.260;2023-04-03T02:10:30;5.30;18.90
32895;DHT22;19251;49.484;8.260;2023-04-03T02:15:33;5.20;19.00
32895;DHT22;19251;49.484;8.260;2023-04-03T02:20:35;5.20;19.30
32895;DHT22;19251;49.484;8.260;2023-04-03T02:25:37;5.20;19.60
32895;DHT22;19251;49.484;8.260;2023-04-03T02:30:40;5.20;19.80
32895;DHT22;19251;49.484;8.260;2023-04-03T02:35:42;5.20;19.90
32895;DHT22;19251;49.484;8.260;2023-04-03T02:40:44;5.20;20.20
32895;DHT22;19251;49.484;8.260;2023-04-03T02:45:46;5.20;20.20
32895;DHT22;19251;49.484;8.260;2023-04-03T02:50:50;5.20;20.30
32895;DHT22;19251;49.484;8.260;2023-04-03T02:55:52;5.40;20.60
32895;DHT22;19251;49.484;8.260;2023-04-03T03:00:54;5.30;20.50
32895;DHT22;19251;49.484;8.260;2023-04-03T03:11:08;5.20;20.40
32895;DHT22;19251;49.484;8.260;2023-04-03T03:16:11;5.20;20.40
32895;DHT22;19251;49.484;8.260;2023-04-03T03:21:13;5.20;20.40
32895;DHT22;19251;49.484;8.260;2023-04-03T03:26:15;5.10;20.40
32895;DHT22;19251;49.484;8.260;2023-04-03T03:31:19;5.10;20.50
32895;DHT22;19251;49.484;8.260;2023-04-03T03:36:22;5.20;20.60
32895;DHT22;19251;49.484;8.260;2023-04-03T03:41:24;4.90;20.60
32895;DHT22;19251;49.484;8.260;2023-04-03T03:46:26;5.10;20.80
32895;DHT22;19251;49.484;8.260;2023-04-03T03:51:28;4.80;20.70
32895;DHT22;19251;49.484;8.260;2023-04-03T03:56:32;4.80;20.70
32895;DHT22;19251;49.484;8.260;2023-04-03T04:01:34;4.70;20.70
32895;DHT22;19251;49.484;8.260;2023-04-03T04:06:38;4.70;20.70
32895;DHT22;19251;49.484;8.260;2023-04-03T04:16:44;4.60;20.80
32895;DHT22;19251;49.484;8.260;2023-04-03T04:21:47;4.60;20.90
32895;DHT22;19251;49.484;8.260;2023-04-03T04:26:50;4.50;20.90
32895;DHT22;19251;49.484;8.260;2023-04-03T04:31:53;4.50;21.00
32895;DHT22;19251;49.484;8.260;2023-04-03T04:36:56;4.60;21.10
32895;DHT22;19251;49.484;8.260;2023-04-03T04:42:01;4.50;21.20
32895;DHT22;19251;49.484;8.260;2023-04-03T04:47:04;4.40;21.10
32895;DHT22;19251;49.484;8.260;2023-04-03T04:52:07;4.30;21.10
32895;DHT22;19251;49.484;8.260;2023-04-03T04:57:10;4.30;21.20
32895;DHT22;19251;49.484;8.260;2023-04-03T05:02:13;4.30;21.40
32895;DHT22;19251;49.484;8.260;2023-04-03T05:07:16;4.20;21.50
32895;DHT22;19251;49.484;8.260;2023-04-03T05:17:21;4.30;21.70
32895;DHT22;19251;49.484;8.260;2023-04-03T05:22:24;4.30;21.90
32895;DHT22;19251;49.484;8.260;2023-04-03T05:27:27;4.40;22.20
32895;DHT22;19251;49.484;8.260;2023-04-03T05:32:33;4.40;22.30
32895;DHT22;19251;49.484;8.260;2023-04-03T05:37:37;4.50;22.30
32895;DHT22;19251;49.484;8.260;2023-04-03T05:42:40;4.50;22.30
32895;DHT22;19251;49.484;8.260;2023-04-03T05:47:43;4.70;22.50
32895;DHT22;19251;49.484;8.260;2023-04-03T05:52:46;4.80;22.80
32895;DHT22;19251;49.484;8.260;2023-04-03T05:57:51;5.00;23.20
32895;DHT22;19251;49.484;8.260;2023-04-03T06:07:57;5.60;23.70
32895;DHT22;19251;49.484;8.260;2023-04-03T06:12:59;5.80;23.70
32895;DHT22;19251;49.484;8.260;2023-04-03T06:18:03;6.00;23.90
32895;DHT22;19251;49.484;8.260;2023-04-03T06:23:06;6.20;23.90
32895;DHT22;19251;49.484;8.260;2023-04-03T06:28:09;6.50;23.90
32895;DHT22;19251;49.484;8.260;2023-04-03T06:33:12;6.50;23.80
32895;DHT22;19251;49.484;8.260;2023-04-03T06:38:14;6.80;24.00
32895;DHT22;19251;49.484;8.260;2023-04-03T06:43:16;6.90;24.00
32895;DHT22;19251;49.484;8.260;2023-04-03T06:48:21;7.10;24.20
32895;DHT22;19251;49.484;8.260;2023-04-03T06:53:23;7.30;24.30
32895;DHT22;19251;49.484;8.260;2023-04-03T06:58:25;7.50;24.40
32895;DHT22;19251;49.484;8.260;2023-04-03T07:03:27;7.60;24.50
32895;DHT22;19251;49.484;8.260;2023-04-03T07:08:29;7.80;24.30
32895;DHT22;19251;49.484;8.260;2023-04-03T07:13:33;8.00;24.10
32895;DHT22;19251;49.484;8.260;2023-04-03T07:18:35;8.10;23.80
32895;DHT22;19251;49.484;8.260;2023-04-03T07:23:38;8.30;23.70
32895;DHT22;19251;49.484;8.260;2023-04-03T07:28:40;8.50;23.60
32895;DHT22;19251;49.484;8.260;2023-04-03T07:33:43;8.60;23.10
32895;DHT22;19251;49.484;8.260;2023-04-03T07:38:47;8.80;23.20
32895;DHT22;19251;49.484;8.260;2023-04-03T07:43:50;8.80;23.00
32895;DHT22;19251;49.484;8.260;2023-04-03T07:48:52;8.90;23.00
32895;DHT22;19251;49.484;8.260;2023-04-03T07:53:54;9.10;22.60
32895;DHT22;19251;49.484;8.260;2023-04-03T07:58:57;9.20;22.50
32895;DHT22;19251;49.484;8.260;2023-04-03T08:03:59;9.30;22.40
32895;DHT22;19251;49.484;8.260;2023-04-03T08:09:03;9.40;22.20
32895;DHT22;19251;49.484;8.260;2023-04-03T08:14:05;9.50;21.90
32895;DHT22;19251;49.484;8.260;2023-04-03T08:19:08;9.70;21.40
32895;DHT22;19251;49.484;8.260;2023-04-03T08:24:24;9.80;21.60
32895;DHT22;19251;49.484;8.260;2023-04-03T08:29:26;10.00;20.20
32895;DHT22;19251;49.484;8.260;2023-04-03T08:34:28;10.10;19.40
32895;DHT22;19251;49.484;8.260;2023-04-03T08:39:30;10.20;17.90
32895;DHT22;19251;49.484;8.260;2023-04-03T08:44:45;10.40;18.70
32895;DHT22;19251;49.484;8.260;2023-04-03T08:49:51;10.30;17.40
32895;DHT22;19251;49.484;8.260;2023-04-03T08:54:54;10.50;17.30
32895;DHT22;19251;49.484;8.260;2023-04-03T08:59:58;10.60;17.10
32895;DHT22;19251;49.484;8.260;2023-04-03T09:05:09;10.80;17.20
32895;DHT22;19251;49.484;8.260;2023-04-03T09:10:13;11.10;15.30
32895;DHT22;19251;49.484;8.260;2023-04-03T09:15:18;11.30;14.20
32895;DHT22;19251;49.484;8.260;2023-04-03T09:25:39;11.50;13.70
32895;DHT22;19251;49.484;8.260;2023-04-03T09:30:41;11.70;13.80
32895;DHT22;19251;49.484;8.260;2023-04-03T09:35:43;11.90;12.50
32895;DHT22;19251;49.484;8.260;2023-04-03T09:40:50;12.20;12.20
32895;DHT22;19251;49.484;8.260;2023-04-03T09:51:26;12.30;11.60
32895;DHT22;19251;49.484;8.260;2023-04-03T09:56:29;12.40;11.50
32895;DHT22;19251;49.484;8.260;2023-04-03T10:01:36;12.50;11.00
32895;DHT22;19251;49.484;8.260;2023-04-03T10:06:40;12.50;10.70
32895;DHT22;19251;49.484;8.260;2023-04-03T10:22:16;12.30;10.10
32895;DHT22;19251;49.484;8.260;2023-04-03T10:28:07;12.30;9.80
32895;DHT22;19251;49.484;8.260;2023-04-03T10:43:04;12.40;9.60
32895;DHT22;19251;49.484;8.260;2023-04-03T10:53:31;12.90;8.90
32895;DHT22;19251;49.484;8.260;2023-04-03T10:58:40;13.10;8.80
32895;DHT22;19251;49.484;8.260;2023-04-03T11:03:44;13.20;8.20
32895;DHT22;19251;49.484;8.260;2023-04-03T11:08:51;13.30;7.90
32895;DHT22;19251;49.484;8.260;2023-04-03T11:14:00;13.40;7.80
32895;DHT22;19251;49.484;8.260;2023-04-03T11:19:20;13.50;7.60
32895;DHT22;19251;49.484;8.260;2023-04-03T11:24:27;13.70;7.80
32895;DHT22;19251;49.484;8.260;2023-04-03T11:29:35;13.80;7.60
32895;DHT22;19251;49.484;8.260;2023-04-03T11:34:41;13.90;6.90
32895;DHT22;19251;49.484;8.260;2023-04-03T11:39:55;14.10;6.20
32895;DHT22;19251;49.484;8.260;2023-04-03T12:05:54;14.80;4.20
32895;DHT22;19251;49.484;8.260;2023-04-03T12:16:30;14.80;4.20
32895;DHT22;19251;49.484;8.260;2023-04-03T12:47:28;14.50;3.20
32895;DHT22;19251;49.484;8.260;2023-04-03T12:52:41;14.30;3.70
32895;DHT22;19251;49.484;8.260;2023-04-03T12:57:44;14.30;3.80
32895;DHT22;19251;49.484;8.260;2023-04-03T13:02:46;14.30;3.80
32895;DHT22;19251;49.484;8.260;2023-04-03T13:08:03;14.40;3.80
32895;DHT22;19251;49.484;8.260;2023-04-03T13:13:08;14.60;3.50
32895;DHT22;19251;49.484;8.260;2023-04-03T13:23:32;14.80;3.60
32895;DHT22;19251;49.484;8.260;2023-04-03T13:28:35;15.20;4.50
32895;DHT22;19251;49.484;8.260;2023-04-03T13:33:38;15.50;5.00
32895;DHT22;19251;49.484;8.260;2023-04-03T13:38:40;17.10;3.80
32895;DHT22;19251;49.484;8.260;2023-04-03T13:43:43;17.60;3.00
32895;DHT22;19251;49.484;8.260;2023-04-03T13:48:46;18.10;1.40
32895;DHT22;19251;49.484;8.260;2023-04-03T13:53:56;17.80;1.00
32895;DHT22;19251;49.484;8.260;2023-04-03T13:59:04;17.80;1.00
32895;DHT22;19251;49.484;8.260;2023-04-03T14:04:18;18.30;1.70
32895;DHT22;19251;49.484;8.260;2023-04-03T14:09:22;19.50;1.80
32895;DHT22;19251;49.484;8.260;2023-04-03T14:14:26;20.70;1.00
32895;DHT22;19251;49.484;8.260;2023-04-03T14:19:30;21.80;1.00
32895;DHT22;19251;49.484;8.260;2023-04-03T14:24:33;22.20;1.00
32895;DHT22;19251;49.484;8.260;2023-04-03T14:29:36;22.80;1.00
32895;DHT22;19251;49.484;8.260;2023-04-03T14:34:38;22.70;1.00
32895;DHT22;19251;49.484;8.260;2023-04-03T14:39:40;22.30;1.00
32895;DHT22;19251;49.484;8.260;2023-04-03T14:44:43;22.70;1.00
32895;DHT22;19251;49.484;8.260;2023-04-03T14:49:45;23.70;1.00
32895;DHT22;19251;49.484;8.260;2023-04-03T14:54:51;24.00;1.00
32895;DHT22;19251;49.484;8.260;2023-04-03T14:59:54;25.00;1.00
32895;DHT22;19251;49.484;8.260;2023-04-03T15:04:57;26.00;1.00
32895;DHT22;19251;49.484;8.260;2023-04-03T15:15:20;25.10;1.00
32895;DHT22;19251;49.484;8.260;2023-04-03T15:20:24;25.30;1.00
32895;DHT22;19251;49.484;8.260;2023-04-03T15:25:27;26.00;1.00
32895;DHT22;19251;49.484;8.260;2023-04-03T15:30:29;26.50;1.00
32895;DHT22;19251;49.484;8.260;2023-04-03T15:35:31;26.90;1.00
32895;DHT22;19251;49.484;8.260;2023-04-03T15:40:33;27.00;1.00
32895;DHT22;19251;49.484;8.260;2023-04-03T15:45:36;26.80;1.00
32895;DHT22;19251;49.484;8.260;2023-04-03T15:50:39;25.50;1.00
32895;DHT22;19251;49.484;8.260;2023-04-03T15:55:41;25.40;1.00
32895;DHT22;19251;49.484;8.260;2023-04-03T16:00:44;25.50;1.00
32895;DHT22;19251;49.484;8.260;2023-04-03T16:05:47;25.50;1.00
32895;DHT22;19251;49.484;8.260;2023-04-03T16:10:50;24.70;1.00
32895;DHT22;19251;49.484;8.260;2023-04-03T16:15:52;24.40;1.00
32895;DHT22;19251;49.484;8.260;2023-04-03T16:20:54;22.40;1.00
32895;DHT22;19251;49.484;8.260;2023-04-03T16:25:56;21.00;1.00
32895;DHT22;19251;49.484;8.260;2023-04-03T16:30:59;19.80;1.00
32895;DHT22;19251;49.484;8.260;2023-04-03T16:36:03;18.70;1.00
32895;DHT22;19251;49.484;8.260;2023-04-03T16:41:05;17.90;1.00
32895;DHT22;19251;49.484;8.260;2023-04-03T16:46:07;17.30;1.00
32895;DHT22;19251;49.484;8.260;2023-04-03T16:51:09;16.70;1.00
32895;DHT22;19251;49.484;8.260;2023-04-03T16:56:11;16.20;1.00
32895;DHT22;19251;49.484;8.260;2023-04-03T17:01:14;15.70;1.00
32895;DHT22;19251;49.484;8.260;2023-04-03T17:06:18;15.00;1.00
32895;DHT22;19251;49.484;8.260;2023-04-03T17:11:21;14.80;1.00
32895;DHT22;19251;49.484;8.260;2023-04-03T17:16:24;14.50;1.00
32895;DHT22;19251;49.484;8.260;2023-04-03T17:21:26;14.30;1.00
32895;DHT22;19251;49.484;8.260;2023-04-03T17:26:28;14.00;1.00
32895;DHT22;19251;49.484;8.260;2023-04-03T17:31:32;13.90;1.00
32895;DHT22;19251;49.484;8.260;2023-04-03T17:36:34;13.70;1.00
32895;DHT22;19251;49.484;8.260;2023-04-03T17:41:37;13.50;1.00
32895;DHT22;19251;49.484;8.260;2023-04-03T17:46:39;13.20;1.00
32895;DHT22;19251;49.484;8.260;2023-04-03T17:51:41;12.90;1.00
32895;DHT22;19251;49.484;8.260;2023-04-03T18:01:49;12.50;1.00
32895;DHT22;19251;49.484;8.260;2023-04-03T18:06:52;12.20;1.00
32895;DHT22;19251;49.484;8.260;2023-04-03T18:11:56;12.00;1.00
32895;DHT22;19251;49.484;8.260;2023-04-03T18:16:59;11.90;1.00
32895;DHT22;19251;49.484;8.260;2023-04-03T18:22:11;11.50;1.00
32895;DHT22;19251;49.484;8.260;2023-04-03T18:27:16;11.20;1.00
32895;DHT22;19251;49.484;8.260;2023-04-03T18:37:21;10.70;1.00
32895;DHT22;19251;49.484;8.260;2023-04-03T18:42:25;10.50;1.00
32895;DHT22;19251;49.484;8.260;2023-04-03T18:47:27;10.30;1.00
32895;DHT22;19251;49.484;8.260;2023-04-03T18:52:30;10.10;1.00
32895;DHT22;19251;49.484;8.260;2023-04-03T18:57:35;10.00;1.00
32895;DHT22;19251;49.484;8.260;2023-04-03T19:02:37;9.90;1.00
32895;DHT22;19251;49.484;8.260;2023-04-03T19:07:39;9.80;1.00
32895;DHT22;19251;49.484;8.260;2023-04-03T19:12:43;9.70;1.00
32895;DHT22;19251;49.484;8.260;2023-04-03T19:17:46;9.60;1.00
32895;DHT22;19251;49.484;8.260;2023-04-03T19:22:50;9.60;1.00
32895;DHT22;19251;49.484;8.260;2023-04-03T19:27:52;9.50;1.00
32895;DHT22;19251;49.484;8.260;2023-04-03T19:32:54;9.40;1.00
32895;DHT22;19251;49.484;8.260;2023-04-03T19:37:57;9.40;1.70
32895;DHT22;19251;49.484;8.260;2023-04-03T19:42:59;9.20;1.80
32895;DHT22;19251;49.484;8.260;2023-04-03T19:48:02;9.10;1.80
32895;DHT22;19251;49.484;8.260;2023-04-03T19:53:05;9.00;1.90
32895;DHT22;19251;49.484;8.260;2023-04-03T19:58:10;8.90;2.20
32895;DHT22;19251;49.484;8.260;2023-04-03T20:03:12;8.70;2.50
32895;DHT22;19251;49.484;8.260;2023-04-03T20:08:14;8.60;2.80
32895;DHT22;19251;49.484;8.260;2023-04-03T20:13:19;8.40;2.90
32895;DHT22;19251;49.484;8.260;2023-04-03T20:18:21;8.30;3.20
32895;DHT22;19251;49.484;8.260;2023-04-03T20:23:24;8.20;3.50
32895;DHT22;19251;49.484;8.260;2023-04-03T20:28:27;8.10;3.70
32895;DHT22;19251;49.484;8.260;2023-04-03T20:33:29;8.00;3.90
32895;DHT22;19251;49.484;8.260;2023-04-03T20:38:35;7.90;4.20
32895;DHT22;19251;49.484;8.260;2023-04-03T20:43:37;7.80;4.40
32895;DHT22;19251;49.484;8.260;2023-04-03T20:48:40;7.70;4.50
32895;DHT22;19251;49.484;8.260;2023-04-03T20:53:43;7.60;4.70
32895;DHT22;19251;49.484;8.260;2023-04-03T20:58:46;7.60;5.00
32895;DHT22;19251;49.484;8.260;2023-04-03T21:03:51;7.30;5.10
32895;DHT22;19251;49.484;8.260;2023-04-03T21:24:47;6.60;5.60
32895;DHT22;19251;49.484;8.260;2023-04-03T21:29:49;6.50;5.90
32895;DHT22;19251;49.484;8.260;2023-04-03T21:34:53;6.30;6.30
32895;DHT22;19251;49.484;8.260;2023-04-03T21:44:58;6.10;6.90
32895;DHT22;19251;49.484;8.260;2023-04-03T21:50:00;6.00;7.00
32895;DHT22;19251;49.484;8.260;2023-04-03T21:55:05;5.90;7.30
32895;DHT22;19251;49.484;8.260;2023-04-03T22:00:09;5.80;7.40
32895;DHT22;19251;49.484;8.260;2023-04-03T22:05:12;5.70;7.60
32895;DHT22;19251;49.484;8.260;2023-04-03T22:10:14;5.60;7.80
32895;DHT22;19251;49.484;8.260;2023-04-03T22:15:18;5.40;7.80
32895;DHT22;19251;49.484;8.260;2023-04-03T22:20:20;5.40;8.00
32895;DHT22;19251;49.484;8.260;2023-04-03T22:25:22;5.30;8.00
32895;DHT22;19251;49.484;8.260;2023-04-03T22:30:24;5.20;8.20
32895;DHT22;19251;49.484;8.260;2023-04-03T22:35:26;5.10;8.40
32895;DHT22;19251;49.484;8.260;2023-04-03T22:40:28;5.10;8.50
32895;DHT22;19251;49.484;8.260;2023-04-03T22:50:35;4.90;8.80
32895;DHT22;19251;49.484;8.260;2023-04-03T22:55:41;4.80;9.00
32895;DHT22;19251;49.484;8.260;2023-04-03T23:00:43;4.70;9.00
32895;DHT22;19251;49.484;8.260;2023-04-03T23:05:45;4.70;9.20
32895;DHT22;19251;49.484;8.260;2023-04-03T23:10:48;4.60;9.40
32895;DHT22;19251;49.484;8.260;2023-04-03T23:15:56;4.50;9.60
32895;DHT22;19251;49.484;8.260;2023-04-03T23:20:59;4.50;9.80
32895;DHT22;19251;49.484;8.260;2023-04-03T23:26:02;4.40;10.10
32895;DHT22;19251;49.484;8.260;2023-04-03T23:31:05;4.30;10.00
32895;DHT22;19251;49.484;8.260;2023-04-03T23:41:11;4.20;10.30
32895;DHT22;19251;49.484;8.260;2023-04-03T23:46:13;4.20;10.40
32895;DHT22;19251;49.484;8.260;2023-04-03T23:51:16;4.10;10.40
32895;DHT22;19251;49.484;8.260;2023-04-03T23:56:18;4.00;10.50
